createdAt,value
2023-05-01T00:04:29.847Z,7.80
2023-05-01T00:09:32.469Z,7.60
2023-05-01T00:14:35.013Z,7.60
2023-05-01T00:19:37.611Z,8.20
2023-05-01T00:24:40.120Z,9.40
2023-05-01T00:29:42.679Z,8.30
2023-05-01T00:34:47.735Z,8.80
2023-05-01T00:39:50.368Z,8.60
2023-05-01T00:44:52.910Z,8.00
2023-05-01T00:49:55.992Z,8.50
2023-05-01T00:54:59.335Z,7.40
2023-05-01T01:00:01.993Z,7.20
2023-05-01T01:05:05.121Z,6.70
2023-05-01T01:10:33.734Z,6.30
2023-05-01T01:15:42.211Z,6.10
2023-05-01T01:20:50.471Z,4.50
2023-05-01T01:26:24.805Z,4.30
2023-05-01T01:32:01.139Z,4.70
2023-05-01T01:37:11.650Z,4.50
2023-05-01T01:42:19.660Z,5.40
2023-05-01T01:47:28.291Z,6.30
2023-05-01T01:52:33.431Z,7.00
2023-05-01T01:57:39.625Z,5.70
2023-05-01T02:02:43.662Z,6.40
2023-05-01T02:07:50.009Z,5.80
2023-05-01T02:12:54.818Z,5.80
2023-05-01T02:17:59.140Z,5.70
2023-05-01T02:23:04.061Z,5.90
2023-05-01T02:28:10.591Z,6.10
2023-05-01T02:33:13.094Z,6.30
2023-05-01T02:38:16.787Z,6.40
2023-05-01T02:43:22.059Z,7.00
2023-05-01T02:48:27.890Z,6.00
2023-05-01T02:53:31.358Z,6.30
2023-05-01T02:58:34.799Z,5.90
2023-05-01T03:03:37.342Z,5.70
2023-05-01T03:08:40.478Z,6.20
2023-05-01T03:13:43.706Z,5.80
2023-05-01T03:18:46.305Z,6.00
2023-05-01T03:23:49.140Z,5.90
2023-05-01T03:28:51.863Z,5.30
2023-05-01T03:33:54.476Z,6.10
2023-05-01T03:38:56.988Z,6.10
2023-05-01T03:43:59.514Z,6.80
2023-05-01T03:49:02.030Z,6.20
2023-05-01T03:54:04.585Z,6.60
2023-05-01T03:59:07.350Z,7.20
2023-05-01T04:04:09.964Z,6.30
2023-05-01T04:09:12.601Z,6.40
2023-05-01T04:14:15.101Z,6.70
2023-05-01T04:19:17.902Z,5.80
2023-05-01T04:24:20.441Z,6.20
2023-05-01T04:29:23.751Z,6.40
2023-05-01T04:34:29.211Z,6.20
2023-05-01T04:39:31.842Z,6.30
2023-05-01T04:44:35.892Z,5.90
2023-05-01T04:49:38.478Z,5.70
2023-05-01T04:54:41.067Z,6.20
2023-05-01T04:59:43.683Z,6.00
2023-05-01T05:04:46.243Z,5.00
2023-05-01T05:09:49.026Z,5.10
2023-05-01T05:14:51.612Z,4.70
2023-05-01T05:19:54.299Z,4.50
2023-05-01T05:25:00.121Z,3.60
2023-05-01T05:30:13.163Z,4.00
2023-05-01T05:35:18.801Z,3.60
2023-05-01T05:40:21.428Z,3.20
2023-05-01T05:45:25.254Z,3.10
2023-05-01T05:50:28.119Z,3.10
2023-05-01T05:55:30.755Z,3.20
2023-05-01T06:00:33.346Z,2.70
2023-05-01T06:05:36.244Z,2.60
2023-05-01T06:10:43.906Z,2.80
2023-05-01T06:15:47.201Z,2.80
2023-05-01T06:20:49.807Z,2.70
2023-05-01T06:25:53.017Z,2.60
2023-05-01T06:30:56.059Z,3.00
2023-05-01T06:35:59.857Z,2.50
2023-05-01T06:41:02.427Z,2.60
2023-05-01T06:46:04.949Z,2.70
2023-05-01T06:51:07.511Z,2.80
2023-05-01T06:56:10.160Z,2.50
2023-05-01T07:01:12.890Z,2.60
2023-05-01T07:06:15.908Z,2.20
2023-05-01T07:11:18.617Z,2.60
2023-05-01T07:16:21.481Z,2.70
2023-05-01T07:21:24.104Z,2.70
2023-05-01T07:26:27.659Z,2.80
2023-05-01T07:31:30.785Z,2.80
2023-05-01T07:36:34.100Z,2.90
2023-05-01T07:41:36.688Z,2.60
2023-05-01T07:46:39.334Z,2.80
2023-05-01T07:51:42.717Z,2.70
2023-05-01T07:56:46.321Z,3.10
2023-05-01T08:01:49.730Z,3.10
2023-05-01T08:06:52.446Z,2.90
2023-05-01T08:11:55.170Z,2.80
2023-05-01T08:16:58.165Z,3.00
2023-05-01T08:22:00.746Z,3.20
2023-05-01T08:27:03.858Z,3.00
2023-05-01T08:32:06.623Z,3.30
2023-05-01T08:37:09.316Z,2.70
2023-05-01T08:42:13.521Z,3.20
2023-05-01T08:47:18.309Z,3.70
2023-05-01T08:52:22.438Z,3.40
2023-05-01T08:57:26.848Z,3.20
2023-05-01T09:02:31.430Z,3.00
2023-05-01T09:07:36.151Z,3.20
2023-05-01T09:12:41.073Z,3.30
2023-05-01T09:17:45.134Z,3.00
2023-05-01T09:22:51.289Z,3.80
2023-05-01T09:27:54.651Z,3.20
2023-05-01T09:33:15.025Z,3.00
2023-05-01T09:38:22.888Z,3.10
2023-05-01T09:43:29.925Z,3.30
2023-05-01T09:48:35.361Z,3.20
2023-05-01T09:53:40.652Z,3.40
2023-05-01T09:58:43.279Z,2.60
2023-05-01T10:03:46.406Z,2.40
2023-05-01T10:08:50.570Z,2.60
2023-05-01T10:14:09.898Z,2.90
2023-05-01T10:19:13.773Z,3.00
2023-05-01T10:24:17.351Z,2.80
2023-05-01T10:29:23.332Z,3.20
2023-05-01T10:34:28.534Z,2.80
2023-05-01T10:39:33.001Z,2.90
2023-05-01T10:44:35.767Z,2.90
2023-05-01T10:50:10.716Z,2.80
2023-05-01T10:55:36.350Z,2.70
2023-05-01T11:00:39.229Z,3.10
2023-05-01T11:06:01.024Z,2.90
2023-05-01T11:11:26.995Z,2.90
2023-05-01T11:16:46.907Z,3.40
2023-05-01T11:21:50.735Z,2.80
2023-05-01T11:26:53.477Z,2.70
2023-05-01T11:31:56.294Z,3.00
2023-05-01T11:36:59.046Z,2.70
2023-05-01T11:42:09.056Z,2.50
2023-05-01T11:47:11.752Z,2.70
2023-05-01T11:52:14.281Z,2.90
2023-05-01T11:57:17.109Z,2.40
2023-05-01T12:02:20.439Z,2.40
2023-05-01T12:07:23.727Z,2.50
2023-05-01T12:12:26.390Z,2.60
2023-05-01T12:17:30.137Z,2.30
2023-05-01T12:22:32.946Z,2.90
2023-05-01T12:27:43.483Z,2.60
2023-05-01T12:32:46.208Z,2.70
2023-05-01T12:37:48.936Z,2.40
2023-05-01T12:42:58.382Z,2.20
2023-05-01T12:48:01.057Z,2.50
2023-05-01T12:53:03.793Z,2.40
2023-05-01T12:58:06.551Z,2.50
2023-05-01T13:03:09.278Z,2.70
2023-05-01T13:08:12.756Z,2.20
2023-05-01T13:13:24.381Z,2.60
2023-05-01T13:18:27.263Z,2.70
2023-05-01T13:23:30.369Z,3.10
2023-05-01T13:28:47.037Z,2.80
2023-05-01T13:33:54.561Z,2.60
2023-05-01T13:38:57.774Z,2.20
2023-05-01T13:44:00.360Z,2.80
2023-05-01T13:49:07.400Z,2.70
2023-05-01T13:54:10.917Z,2.80
2023-05-01T13:59:13.484Z,2.90
2023-05-01T14:04:20.007Z,2.60
2023-05-01T14:09:22.968Z,3.00
2023-05-01T14:14:25.546Z,2.80
2023-05-01T14:19:28.046Z,2.50
2023-05-01T14:24:34.004Z,2.50
2023-05-01T14:29:41.564Z,2.10
2023-05-01T14:34:46.019Z,2.30
2023-05-01T14:39:48.612Z,2.20
2023-05-01T14:44:51.194Z,2.20
2023-05-01T14:49:54.321Z,2.60
2023-05-01T14:54:57.183Z,3.10
2023-05-01T15:00:00.395Z,2.80
2023-05-01T15:05:17.532Z,2.60
2023-05-01T15:10:23.336Z,2.30
2023-05-01T15:15:26.739Z,2.00
2023-05-01T15:20:29.840Z,2.30
2023-05-01T15:25:32.570Z,2.80
2023-05-01T15:30:35.179Z,2.60
2023-05-01T15:35:38.060Z,2.60
2023-05-01T15:40:43.223Z,2.30
2023-05-01T15:45:46.074Z,2.30
2023-05-01T15:50:49.277Z,2.60
2023-05-01T15:55:57.298Z,2.80
2023-05-01T16:00:59.851Z,2.40
2023-05-01T16:06:03.698Z,2.50
2023-05-01T16:11:06.430Z,3.10
2023-05-01T16:16:11.056Z,2.90
2023-05-01T16:21:19.835Z,6.90
2023-05-01T16:26:28.125Z,5.60
2023-05-01T16:31:47.508Z,2.70
2023-05-01T16:36:54.791Z,2.80
2023-05-01T16:41:57.378Z,2.60
2023-05-01T16:47:00.349Z,2.50
2023-05-01T16:52:04.713Z,2.40
2023-05-01T16:57:10.340Z,3.50
2023-05-01T17:02:13.295Z,3.80
2023-05-01T17:07:16.156Z,3.60
2023-05-01T17:12:19.962Z,4.00
2023-05-01T17:17:22.982Z,4.90
2023-05-01T17:22:27.836Z,5.60
2023-05-01T17:27:32.023Z,4.00
2023-05-01T17:32:37.397Z,3.60
2023-05-01T17:37:41.556Z,3.50
2023-05-01T17:42:44.556Z,5.00
2023-05-01T17:47:47.763Z,12.60
2023-05-01T17:52:50.389Z,6.60
2023-05-01T17:57:52.926Z,3.50
2023-05-01T18:02:56.034Z,3.00
2023-05-01T18:07:58.694Z,2.90
2023-05-01T18:13:01.749Z,3.30
2023-05-01T18:18:04.360Z,3.90
2023-05-01T18:23:07.703Z,4.00
2023-05-01T18:28:10.307Z,4.50
2023-05-01T18:33:12.951Z,4.60
2023-05-01T18:38:15.582Z,4.50
2023-05-01T18:43:18.819Z,4.00
2023-05-01T18:48:21.435Z,4.30
2023-05-01T18:53:24.511Z,9.40
2023-05-01T18:58:27.202Z,5.80
2023-05-01T19:03:29.741Z,5.90
2023-05-01T19:08:32.307Z,7.50
2023-05-01T19:13:35.012Z,6.60
2023-05-01T19:18:39.468Z,8.20
2023-05-01T19:23:43.140Z,8.30
2023-05-01T19:28:45.791Z,8.60
2023-05-01T19:33:48.794Z,8.30
2023-05-01T19:38:51.355Z,7.70
2023-05-01T19:43:54.064Z,8.00
2023-05-01T19:48:56.618Z,8.10
2023-05-01T19:53:59.260Z,7.20
2023-05-01T19:59:02.200Z,6.30
2023-05-01T20:04:05.309Z,7.50
2023-05-01T20:09:08.159Z,5.70
2023-05-01T20:14:10.759Z,6.30
2023-05-01T20:19:13.552Z,5.60
2023-05-01T20:24:16.904Z,6.30
2023-05-01T20:29:20.303Z,5.70
2023-05-01T20:34:23.417Z,5.00
2023-05-01T20:39:26.376Z,5.50
2023-05-01T20:44:28.889Z,5.00
2023-05-01T20:49:31.417Z,5.20
2023-05-01T20:54:33.948Z,4.70
2023-05-01T20:59:36.469Z,5.00
2023-05-01T21:04:39.144Z,4.70
2023-05-01T21:09:46.527Z,5.20
2023-05-01T21:14:49.125Z,4.40
2023-05-01T21:19:51.794Z,4.70
2023-05-01T21:24:59.271Z,4.10
2023-05-01T21:30:02.523Z,4.20
2023-05-01T21:35:07.073Z,4.10
2023-05-01T21:40:15.082Z,4.50
2023-05-01T21:45:19.363Z,5.10
2023-05-01T21:50:21.913Z,4.20
2023-05-01T21:55:25.949Z,4.60
2023-05-01T22:00:29.736Z,4.00
2023-05-01T22:05:34.384Z,3.90
2023-05-01T22:10:37.123Z,3.90
2023-05-01T22:15:39.761Z,3.40
2023-05-01T22:20:42.378Z,3.90
2023-05-01T22:25:44.898Z,4.20
2023-05-01T22:30:47.640Z,3.60
2023-05-01T22:35:50.234Z,3.90
2023-05-01T22:40:52.816Z,3.60
2023-05-01T22:45:55.865Z,4.40
2023-05-01T22:50:58.482Z,4.10
2023-05-01T22:56:01.171Z,3.90
2023-05-01T23:01:03.789Z,4.20
2023-05-01T23:06:06.607Z,3.70
2023-05-01T23:11:21.047Z,3.90
2023-05-01T23:16:23.738Z,4.10
2023-05-01T23:21:26.310Z,3.90
2023-05-01T23:26:29.386Z,3.50
2023-05-01T23:31:33.615Z,3.70
2023-05-01T23:36:36.298Z,3.40
2023-05-01T23:41:39.434Z,3.90
2023-05-01T23:46:42.135Z,3.40
2023-05-01T23:51:44.892Z,4.00
2023-05-01T23:56:47.377Z,3.80
